Time;durP1;ratioP1;P1;durP2;ratioP2;P2;SDS_P1;SDS_P2;PMS_P1;PMS_P2;Temp;Humidity;BMP_temperature;BMP_pressure;BME280_temperature;BME280_humidity;BME280_pressure;Samples;Min_cycle;Max_cycle;Signal;HPM_P1;HPM_P2
2020/12/06 00:01:29;;;;;;;50.28;29.90;;;1.60;99.90;;;;;;5024639;28;20702;-76
2020/12/06 00:03:55;;;;;;;53.95;26.45;;;1.60;99.90;;;;;;5008831;28;20053;-76
2020/12/06 00:06:22;;;;;;;59.55;29.15;;;1.60;99.90;;;;;;5030131;28;20124;-76
2020/12/06 00:08:52;;;;;;;55.15;28.63;;;1.60;99.90;;;;;;5028249;28;20057;-76
2020/12/06 00:11:19;;;;;;;52.97;27.30;;;1.60;99.90;;;;;;5028339;28;20072;-76
2020/12/06 00:13:45;;;;;;;57.78;29.45;;;1.60;99.90;;;;;;5045584;28;20053;-75
2020/12/06 00:16:13;;;;;;;59.00;30.17;;;1.70;99.90;;;;;;5027364;28;20033;-75
2020/12/06 00:18:41;;;;;;;54.72;28.67;;;1.40;99.90;;;;;;5028101;28;20102;-75
2020/12/06 00:21:14;;;;;;;57.65;28.60;;;1.50;99.90;;;;;;5044500;28;20088;-75
2020/12/06 00:23:41;;;;;;;48.72;24.05;;;1.60;99.90;;;;;;5044708;28;20529;-75
2020/12/06 00:26:07;;;;;;;45.97;22.27;;;1.70;99.90;;;;;;5043990;28;20060;-75
2020/12/06 00:28:33;;;;;;;51.17;22.30;;;1.70;99.90;;;;;;5043562;28;20257;-75
2020/12/06 00:31:00;;;;;;;50.95;22.08;;;1.40;99.90;;;;;;5027723;28;20053;-75
2020/12/06 00:33:27;;;;;;;47.25;22.08;;;1.40;99.90;;;;;;5027383;28;20049;-75
2020/12/06 00:35:54;;;;;;;46.80;21.90;;;1.40;99.90;;;;;;5044877;28;20056;-75
2020/12/06 00:38:21;;;;;;;47.30;21.75;;;1.40;99.90;;;;;;5044192;28;20238;-75
2020/12/06 00:40:48;;;;;;;43.95;22.20;;;1.40;99.90;;;;;;5043744;28;20045;-75
2020/12/06 00:43:14;;;;;;;46.22;21.98;;;1.50;99.90;;;;;;5044641;28;20061;-75
2020/12/06 00:45:40;;;;;;;45.50;23.23;;;1.40;99.90;;;;;;5028240;28;20159;-75
2020/12/06 00:48:07;;;;;;;37.67;20.40;;;1.50;99.90;;;;;;5027305;28;20059;-76
2020/12/06 00:50:33;;;;;;;36.35;21.00;;;1.60;99.90;;;;;;5027726;28;20409;-75
2020/12/06 00:53:02;;;;;;;46.25;24.63;;;1.80;99.90;;;;;;5044525;28;20205;-76
2020/12/06 00:55:29;;;;;;;54.28;28.48;;;1.80;99.90;;;;;;5043272;28;20148;-75
2020/12/06 00:57:56;;;;;;;74.20;36.90;;;1.90;99.90;;;;;;5027507;28;20096;-76
2020/12/06 01:00:23;;;;;;;97.18;48.17;;;1.90;99.90;;;;;;5024333;28;20057;-76
2020/12/06 01:02:49;;;;;;;61.05;30.33;;;1.90;99.90;;;;;;4990814;28;20057;-75
2020/12/06 01:05:17;;;;;;;45.88;25.20;;;1.90;99.90;;;;;;5032095;28;20073;-76
2020/12/06 01:07:43;;;;;;;50.80;25.08;;;1.80;99.90;;;;;;5043703;28;20059;-76
2020/12/06 01:10:11;;;;;;;55.65;28.35;;;1.90;99.90;;;;;;5010211;28;20045;-75
2020/12/06 01:12:39;;;;;;;68.20;34.38;;;1.90;99.90;;;;;;5010590;28;20679;-75
2020/12/06 01:15:07;;;;;;;64.68;31.85;;;1.90;99.90;;;;;;5043140;28;20053;-75
2020/12/06 01:17:34;;;;;;;57.05;29.55;;;2.00;99.90;;;;;;5009862;28;20049;-75
2020/12/06 01:20:01;;;;;;;65.05;31.58;;;2.10;99.90;;;;;;5043011;28;20068;-75
2020/12/06 01:22:27;;;;;;;64.68;33.28;;;2.10;99.90;;;;;;5045013;28;20146;-75
2020/12/06 01:24:53;;;;;;;68.30;34.40;;;2.20;99.90;;;;;;5043233;28;20055;-76
2020/12/06 01:27:20;;;;;;;54.65;28.20;;;2.30;99.90;;;;;;5042968;28;20049;-75
2020/12/06 01:29:46;;;;;;;53.13;29.15;;;2.30;99.90;;;;;;5043528;28;20049;-76
2020/12/06 01:32:12;;;;;;;50.72;28.05;;;2.30;99.90;;;;;;5044898;28;20529;-75
2020/12/06 01:34:39;;;;;;;42.58;23.38;;;2.10;99.90;;;;;;5025177;28;20044;-76
2020/12/06 01:37:05;;;;;;;45.13;24.27;;;2.20;99.90;;;;;;5026680;28;20056;-75
2020/12/06 01:39:31;;;;;;;36.15;22.90;;;2.30;99.90;;;;;;5025897;28;20052;-74
2020/12/06 01:41:58;;;;;;;23.27;15.57;;;2.40;99.90;;;;;;5043187;28;20571;-74
2020/12/06 01:44:26;;;;;;;19.52;13.35;;;2.60;99.90;;;;;;5026970;28;20060;-76
2020/12/06 01:46:54;;;;;;;23.77;14.45;;;2.80;99.90;;;;;;5044673;28;20052;-75
2020/12/06 01:49:24;;;;;;;16.02;13.25;;;2.90;99.90;;;;;;5048629;28;20056;-75
2020/12/06 01:51:59;;;;;;;17.92;14.13;;;3.00;99.90;;;;;;5015156;28;20414;-75
2020/12/06 01:54:26;;;;;;;;;;;3.10;99.90;;;;;;5011377;28;20537;-75
2020/12/06 01:56:52;;;;;;;17.90;13.70;;;3.20;99.90;;;;;;5044606;28;19920;-77
2020/12/06 01:59:19;;;;;;;17.77;12.80;;;3.20;99.90;;;;;;5020281;28;20285;-75
2020/12/06 02:02:03;;;;;;;19.85;13.50;;;3.20;99.90;;;;;;5018577;28;20425;-75
2020/12/06 02:04:31;;;;;;;19.73;13.55;;;3.20;99.90;;;;;;5047066;28;20128;-76
2020/12/06 02:06:58;;;;;;;15.35;12.23;;;3.30;99.90;;;;;;5030039;28;20524;-75
2020/12/06 02:09:27;;;;;;;19.38;13.32;;;3.20;99.90;;;;;;5047526;28;20573;-78
2020/12/06 02:11:54;;;;;;;21.60;13.93;;;3.30;99.90;;;;;;5014724;28;20041;-76
2020/12/06 02:14:22;;;;;;;20.20;15.25;;;3.40;99.90;;;;;;5047816;28;20037;-76
2020/12/06 02:16:55;;;;;;;18.13;13.98;;;3.40;99.90;;;;;;5046691;28;20052;-76
2020/12/06 02:19:21;;;;;;;19.05;15.18;;;3.40;99.90;;;;;;5048633;28;20095;-76
2020/12/06 02:21:48;;;;;;;18.55;14.82;;;3.50;99.90;;;;;;5049311;28;20055;-75
2020/12/06 02:24:18;;;;;;;21.67;16.60;;;3.50;99.90;;;;;;5013874;28;20067;-76
2020/12/06 02:26:47;;;;;;;22.52;16.58;;;3.50;99.90;;;;;;5046212;28;20087;-76
2020/12/06 02:29:14;;;;;;;24.38;17.73;;;3.50;99.90;;;;;;5047570;28;20143;-76
2020/12/06 02:31:40;;;;;;;23.17;16.85;;;3.50;99.90;;;;;;5047798;28;20045;-76
2020/12/06 02:34:08;;;;;;;19.67;16.90;;;3.60;99.90;;;;;;5026870;28;20058;-76
2020/12/06 02:36:35;;;;;;;22.50;16.90;;;3.60;99.90;;;;;;5046357;28;20049;-76
2020/12/06 02:39:09;;;;;;;18.30;15.18;;;3.70;99.90;;;;;;5048131;28;20045;-76
2020/12/06 02:41:45;;;;;;;19.15;16.15;;;3.70;99.90;;;;;;5014049;28;20041;-78
2020/12/06 02:44:13;;;;;;;19.63;14.55;;;3.70;99.90;;;;;;5045448;28;20048;-76
2020/12/06 02:46:40;;;;;;;23.30;16.02;;;3.60;99.90;;;;;;5046045;28;20055;-76
2020/12/06 02:49:07;;;;;;;22.00;15.93;;;3.50;99.90;;;;;;5038853;28;20049;-76
2020/12/06 02:51:34;;;;;;;18.75;14.95;;;3.40;99.90;;;;;;5036605;28;20049;-75
2020/12/06 02:54:00;;;;;;;27.27;17.40;;;3.50;99.90;;;;;;5046063;28;20060;-75
2020/12/06 02:56:27;;;;;;;26.45;18.35;;;3.50;99.90;;;;;;5040403;28;20049;-75
2020/12/06 02:58:53;;;;;;;30.15;21.30;;;3.50;99.90;;;;;;5022325;28;20057;-76
2020/12/06 03:01:20;;;;;;;36.75;22.13;;;3.50;99.90;;;;;;5026324;28;20085;-77
2020/12/06 03:03:46;;;;;;;33.83;23.08;;;3.60;99.90;;;;;;5026706;28;20055;-77
2020/12/06 03:06:13;;;;;;;30.63;21.58;;;3.70;99.90;;;;;;5046245;28;20056;-76
2020/12/06 03:08:39;;;;;;;33.28;22.13;;;3.50;99.90;;;;;;5047137;28;20057;-77
2020/12/06 03:11:07;;;;;;;32.72;21.92;;;3.50;99.90;;;;;;5012644;28;20045;-76
2020/12/06 03:13:34;;;;;;;35.70;22.92;;;3.60;99.90;;;;;;5030343;28;20045;-76
2020/12/06 03:16:02;;;;;;;32.97;23.02;;;3.60;99.90;;;;;;5029334;28;20053;-76
2020/12/06 03:18:29;;;;;;;33.90;22.33;;;3.60;99.90;;;;;;5029909;28;20549;-76
2020/12/06 03:20:56;;;;;;;31.67;21.15;;;3.60;99.90;;;;;;5029978;28;20139;-76
2020/12/06 03:23:22;;;;;;;32.92;22.23;;;3.60;99.90;;;;;;5046869;28;20079;-76
2020/12/06 03:25:48;;;;;;;35.65;21.95;;;3.60;99.90;;;;;;5029648;28;20045;-77
2020/12/06 03:28:14;;;;;;;31.95;22.45;;;3.60;99.90;;;;;;5043533;28;20049;-76
2020/12/06 03:30:41;;;;;;;39.03;23.25;;;3.60;99.90;;;;;;4998327;28;20056;-76
2020/12/06 03:33:07;;;;;;;35.00;20.77;;;3.60;99.90;;;;;;5028754;28;20076;-76
2020/12/06 03:35:34;;;;;;;34.72;20.40;;;3.40;99.90;;;;;;4992723;28;20037;-76
2020/12/06 03:38:00;;;;;;;31.55;18.48;;;3.30;99.90;;;;;;5026059;28;20062;-77
2020/12/06 03:40:26;;;;;;;26.65;16.75;;;3.30;99.90;;;;;;5009295;28;20153;-77
2020/12/06 03:42:53;;;;;;;24.30;15.38;;;3.30;99.90;;;;;;5008596;28;20139;-77
2020/12/06 03:45:20;;;;;;;26.20;15.20;;;3.20;99.90;;;;;;5043458;28;20202;-77
2020/12/06 03:47:47;;;;;;;23.85;15.13;;;3.30;99.90;;;;;;5047055;28;20390;-76
2020/12/06 03:50:14;;;;;;;26.90;16.10;;;3.40;99.90;;;;;;5045830;28;20120;-77
2020/12/06 03:52:40;;;;;;;25.60;15.65;;;3.40;99.90;;;;;;5029625;28;20055;-77
2020/12/06 03:55:06;;;;;;;24.63;15.23;;;3.40;99.90;;;;;;5012277;28;20144;-77
2020/12/06 03:57:33;;;;;;;26.85;14.82;;;3.30;99.90;;;;;;5046345;28;20178;-77
2020/12/06 03:59:59;;;;;;;29.92;17.48;;;3.20;99.90;;;;;;5029450;28;20068;-77
2020/12/06 04:02:26;;;;;;;33.05;18.15;;;3.30;99.90;;;;;;5024950;28;20085;-77
2020/12/06 04:04:52;;;;;;;34.70;19.70;;;3.30;99.90;;;;;;5024441;28;20063;-77
2020/12/06 04:07:18;;;;;;;33.58;19.83;;;3.30;99.90;;;;;;5028578;28;20482;-76
2020/12/06 04:09:45;;;;;;;32.00;20.10;;;3.30;99.90;;;;;;5024274;28;20087;-77
2020/12/06 04:12:11;;;;;;;33.78;18.80;;;3.20;99.90;;;;;;5025067;28;20144;-77
2020/12/06 04:14:37;;;;;;;37.95;21.02;;;3.10;99.90;;;;;;5009145;28;20045;-77
2020/12/06 04:17:04;;;;;;;33.63;20.45;;;3.20;99.90;;;;;;5024018;28;20053;-77
2020/12/06 04:19:30;;;;;;;35.63;20.00;;;3.30;99.90;;;;;;5025360;28;20073;-77
2020/12/06 04:21:57;;;;;;;38.30;21.50;;;3.30;99.90;;;;;;5008890;28;20049;-77
2020/12/06 04:24:24;;;;;;;37.30;20.95;;;3.30;99.90;;;;;;5027793;28;20064;-78
2020/12/06 04:26:50;;;;;;;37.53;21.50;;;3.40;99.90;;;;;;5044368;28;20052;-76
2020/12/06 04:29:16;;;;;;;38.38;22.38;;;3.50;99.90;;;;;;5043851;28;20052;-79
2020/12/06 04:31:43;;;;;;;39.35;22.98;;;3.60;99.90;;;;;;5011954;28;20076;-77
2020/12/06 04:34:09;;;;;;;41.10;22.25;;;3.60;99.90;;;;;;5045051;28;20045;-77
2020/12/06 04:36:35;;;;;;;44.33;21.48;;;3.60;99.90;;;;;;5027407;28;20040;-77
2020/12/06 04:39:01;;;;;;;39.65;23.10;;;3.70;99.90;;;;;;5044812;28;20041;-77
2020/12/06 04:41:28;;;;;;;48.40;24.95;;;3.70;99.90;;;;;;5045883;28;20084;-77
2020/12/06 04:43:55;;;;;;;45.63;23.92;;;3.70;99.90;;;;;;5028726;28;20045;-75
2020/12/06 04:46:24;;;;;;;43.50;22.52;;;3.70;99.90;;;;;;5044579;28;20084;-76
2020/12/06 04:49:21;;;;;;;47.95;24.63;;;3.50;99.90;;;;;;5044925;28;20139;-76
2020/12/06 04:51:53;;;;;;;43.05;25.30;;;3.30;99.90;;;;;;5024542;28;20042;-77
2020/12/06 04:54:21;;;;;;;46.30;25.45;;;3.30;99.90;;;;;;4998954;28;20084;-77
2020/12/06 04:56:55;;;;;;;48.45;26.35;;;3.20;99.90;;;;;;5037147;28;20128;-77
2020/12/06 04:59:23;;;;;;;47.00;29.42;;;3.10;99.90;;;;;;5033127;28;20352;-77
2020/12/06 05:01:50;;;;;;;51.80;28.00;;;3.00;99.90;;;;;;5024096;28;20049;-76
2020/12/06 05:04:20;;;;;;;49.15;27.83;;;3.00;99.90;;;;;;5008232;28;20045;-76
2020/12/06 05:06:46;;;;;;;50.63;28.35;;;3.10;99.90;;;;;;5023813;28;20045;-77
2020/12/06 05:09:14;;;;;;;47.15;29.27;;;3.00;99.90;;;;;;5044001;28;20055;-76
2020/12/06 05:11:42;;;;;;;43.72;26.75;;;2.90;99.90;;;;;;5027570;28;20140;-78
2020/12/06 05:14:09;;;;;;;47.92;26.85;;;3.00;99.90;;;;;;5027625;28;20136;-77
2020/12/06 05:16:37;;;;;;;42.92;26.05;;;3.00;99.90;;;;;;5042839;28;20045;-77
2020/12/06 05:19:05;;;;;;;46.22;27.80;;;3.00;99.90;;;;;;5043426;28;20049;-77
2020/12/06 05:21:33;;;;;;;47.88;28.45;;;3.00;99.90;;;;;;5007153;28;20049;-77
2020/12/06 05:24:00;;;;;;;52.03;27.50;;;3.00;99.90;;;;;;5025032;28;20063;-77
2020/12/06 05:26:30;;;;;;;49.35;28.27;;;3.00;99.90;;;;;;5011639;28;20545;-76
2020/12/06 05:28:57;;;;;;;58.50;29.23;;;3.00;99.90;;;;;;5027476;28;20559;-77
2020/12/06 05:31:25;;;;;;;49.40;27.48;;;3.00;99.90;;;;;;5043651;28;20146;-77
2020/12/06 05:33:52;;;;;;;46.35;26.33;;;3.00;99.90;;;;;;5044394;28;20041;-77
2020/12/06 05:36:18;;;;;;;41.70;24.58;;;3.00;99.90;;;;;;5044337;28;20045;-77
2020/12/06 05:38:45;;;;;;;46.88;26.67;;;3.00;99.90;;;;;;5045324;28;20053;-78
2020/12/06 05:41:11;;;;;;;46.45;27.08;;;3.00;99.90;;;;;;5043800;28;20055;-78
2020/12/06 05:43:38;;;;;;;48.88;26.52;;;2.90;99.90;;;;;;5044407;28;20080;-77
2020/12/06 05:46:13;;;;;;;48.83;26.88;;;2.90;99.90;;;;;;5043584;28;20136;-77
2020/12/06 05:48:41;;;;;;;44.53;23.98;;;2.90;99.90;;;;;;5045500;28;20106;-77
2020/12/06 05:51:08;;;;;;;42.08;24.25;;;2.90;99.90;;;;;;5027140;28;20049;-77
2020/12/06 05:53:35;;;;;;;42.92;23.63;;;2.90;99.90;;;;;;5044161;28;20057;-77
2020/12/06 05:56:07;;;;;;;54.10;28.25;;;2.90;99.90;;;;;;5044317;28;20052;-76
2020/12/06 05:58:33;;;;;;;45.55;23.88;;;2.80;99.90;;;;;;5036522;28;20053;-76
2020/12/06 06:01:01;;;;;;;47.50;25.85;;;2.80;99.90;;;;;;5041741;28;20563;-76
2020/12/06 06:03:29;;;;;;;46.58;25.55;;;2.80;99.90;;;;;;5045175;28;20115;-77
2020/12/06 06:05:57;;;;;;;42.67;26.08;;;2.80;99.90;;;;;;5042902;28;20114;-77
2020/12/06 06:08:26;;;;;;;49.67;24.75;;;2.90;99.90;;;;;;5043042;28;20287;-76
2020/12/06 06:11:14;;;;;;;50.80;25.80;;;2.80;99.90;;;;;;5026750;28;20071;-77
2020/12/06 06:13:47;;;;;;;43.50;24.15;;;2.90;99.90;;;;;;5045226;28;20052;-76
2020/12/06 06:16:15;;;;;;;52.38;26.40;;;2.80;99.90;;;;;;5041737;28;20064;-76
2020/12/06 06:18:44;;;;;;;44.13;23.17;;;2.80;99.90;;;;;;5027094;28;20060;-76
2020/12/06 06:21:11;;;;;;;53.60;28.48;;;2.80;99.90;;;;;;5027534;28;20049;-76
2020/12/06 06:23:38;;;;;;;51.67;27.50;;;2.80;99.90;;;;;;5027085;28;20098;-77
2020/12/06 06:26:05;;;;;;;47.30;25.23;;;2.90;99.90;;;;;;5043334;28;20044;-77
2020/12/06 06:28:31;;;;;;;47.90;27.75;;;3.00;99.90;;;;;;5044066;28;20045;-77
2020/12/06 06:31:00;;;;;;;48.55;27.95;;;2.90;99.90;;;;;;5042978;28;20060;-77
2020/12/06 06:33:28;;;;;;;50.40;27.13;;;2.90;99.90;;;;;;5045275;28;20075;-77
2020/12/06 06:35:56;;;;;;;52.65;28.13;;;2.90;99.90;;;;;;5030070;28;20050;-77
2020/12/06 06:38:39;;;;;;;51.22;27.35;;;2.90;99.90;;;;;;5016244;28;20045;-77
2020/12/06 06:41:07;;;;;;;43.13;22.13;;;2.90;99.90;;;;;;5030374;28;20056;-78
2020/12/06 06:43:34;;;;;;;47.85;25.17;;;2.80;99.90;;;;;;5047464;28;20528;-77
2020/12/06 06:46:13;;;;;;;44.30;23.88;;;2.80;99.90;;;;;;5046077;28;20056;-77
2020/12/06 06:48:39;;;;;;;49.45;27.70;;;2.70;99.90;;;;;;5047317;28;20053;-76
2020/12/06 06:51:06;;;;;;;51.65;27.65;;;2.70;99.90;;;;;;5048327;28;20077;-76
2020/12/06 06:53:32;;;;;;;52.28;27.58;;;2.70;99.90;;;;;;5046498;28;20067;-77
2020/12/06 06:56:01;;;;;;;42.95;24.83;;;2.80;99.90;;;;;;5030355;28;20128;-77
2020/12/06 06:58:31;;;;;;;53.65;28.80;;;2.80;99.90;;;;;;5027705;28;20076;-76
2020/12/06 07:01:19;;;;;;;53.30;28.05;;;2.80;99.90;;;;;;5041634;28;20060;-76
2020/12/06 07:03:50;;;;;;;63.47;31.35;;;2.80;99.90;;;;;;5043812;28;20107;-76
2020/12/06 07:06:46;;;;;;;57.65;29.48;;;2.80;99.90;;;;;;5026493;28;20049;-77
2020/12/06 07:09:30;;;;;;;54.28;26.95;;;2.80;99.90;;;;;;5047350;28;20142;-76
2020/12/06 07:11:59;;;;;;;59.47;28.13;;;2.80;99.90;;;;;;5046981;28;20095;-77
2020/12/06 07:14:27;;;;;;;60.28;31.10;;;2.80;99.90;;;;;;5029721;28;20056;-78
2020/12/06 07:16:58;;;;;;;53.08;27.65;;;2.90;99.90;;;;;;5029202;28;20127;-77
2020/12/06 07:19:25;;;;;;;59.40;28.75;;;2.90;99.90;;;;;;5030311;28;20045;-77
2020/12/06 07:21:51;;;;;;;60.28;28.98;;;3.00;99.90;;;;;;5029827;28;20049;-76
2020/12/06 07:24:18;;;;;;;61.47;30.75;;;3.00;99.90;;;;;;5045974;28;20044;-76
2020/12/06 07:26:46;;;;;;;57.33;29.05;;;3.00;99.90;;;;;;5030516;28;20061;-79
2020/12/06 07:29:13;;;;;;;57.15;30.55;;;3.10;99.90;;;;;;5021497;28;20410;-79
2020/12/06 07:31:39;;;;;;;49.72;25.58;;;3.10;99.90;;;;;;5012405;28;20052;-79
2020/12/06 07:34:07;;;;;;;50.08;25.88;;;3.00;99.90;;;;;;5030539;28;20046;-79
2020/12/06 07:36:35;;;;;;;54.15;25.80;;;2.90;99.90;;;;;;4994629;28;20103;-80
2020/12/06 07:39:17;;;;;;;49.40;25.30;;;2.90;99.90;;;;;;4996127;28;20195;-78
2020/12/06 07:41:48;;;;;;;52.55;24.08;;;2.90;99.90;;;;;;5036181;28;20135;-77
2020/12/06 07:44:15;;;;;;;46.35;24.75;;;2.90;99.90;;;;;;5029691;28;20452;-79
2020/12/06 07:46:43;;;;;;;48.40;23.17;;;2.80;99.90;;;;;;5013098;28;20076;-78
2020/12/06 07:49:09;;;;;;;49.08;26.73;;;2.90;99.90;;;;;;5029877;28;20074;-77
2020/12/06 07:51:36;;;;;;;54.05;25.00;;;2.90;99.90;;;;;;5030376;28;20111;-77
2020/12/06 07:54:03;;;;;;;64.65;27.92;;;2.80;99.90;;;;;;5048205;28;20495;-77
2020/12/06 07:56:30;;;;;;;56.65;28.33;;;2.90;99.90;;;;;;5045759;28;20053;-77
2020/12/06 07:59:05;;;;;;;57.30;27.92;;;2.90;99.90;;;;;;5039671;28;20061;-78
2020/12/06 08:01:32;;;;;;;58.80;29.00;;;2.80;99.90;;;;;;5025969;28;20060;-77
2020/12/06 08:04:20;;;;;;;52.10;25.02;;;2.80;99.90;;;;;;5027293;28;20145;-78
2020/12/06 08:06:49;;;;;;;49.05;26.90;;;2.80;99.90;;;;;;5011308;28;20555;-78
2020/12/06 08:09:17;;;;;;;57.95;27.85;;;2.70;99.90;;;;;;5032505;28;20060;-77
2020/12/06 08:11:50;;;;;;;61.97;30.15;;;2.80;99.90;;;;;;5048278;28;20049;-77
2020/12/06 08:14:19;;;;;;;61.30;30.02;;;2.90;99.90;;;;;;5048478;28;20128;-77
2020/12/06 08:17:02;;;;;;;65.75;32.67;;;2.90;99.90;;;;;;5046787;28;20145;-78
2020/12/06 08:19:29;;;;;;;66.47;32.05;;;2.90;99.90;;;;;;5047706;28;20079;-78
2020/12/06 08:22:02;;;;;;;70.35;33.50;;;2.90;99.90;;;;;;5031729;28;20049;-79
2020/12/06 08:24:30;;;;;;;73.78;36.03;;;3.00;99.90;;;;;;5047529;28;20502;-79
2020/12/06 08:26:59;;;;;;;73.97;35.88;;;2.90;99.90;;;;;;5045847;28;20111;-75
2020/12/06 08:29:41;;;;;;;73.88;36.65;;;2.90;99.90;;;;;;5028963;28;20140;-76
2020/12/06 08:32:09;;;;;;;72.63;34.38;;;2.90;99.90;;;;;;5045441;28;20072;-75
2020/12/06 08:34:36;;;;;;;72.82;35.05;;;2.90;99.90;;;;;;5027646;28;20096;-78
2020/12/06 08:37:17;;;;;;;76.18;35.40;;;2.90;99.90;;;;;;5043643;28;20067;-76
2020/12/06 08:39:44;;;;;;;78.32;37.22;;;3.00;99.90;;;;;;5042320;28;20048;-77
2020/12/06 08:42:19;;;;;;;73.35;33.40;;;2.90;99.90;;;;;;5046269;28;20045;-76
2020/12/06 08:44:58;;;;;;;76.85;34.47;;;2.80;99.90;;;;;;5028361;28;20049;-77
2020/12/06 08:47:45;;;;;;;68.40;34.17;;;2.80;99.90;;;;;;5044665;28;20071;-77
2020/12/06 08:50:14;;;;;;;72.78;33.90;;;2.90;99.90;;;;;;5028054;28;20266;-76
2020/12/06 08:52:41;;;;;;;70.88;32.20;;;2.90;99.90;;;;;;5044348;28;20068;-76
2020/12/06 08:55:25;;;;;;;64.03;30.50;;;2.90;99.90;;;;;;5044013;28;20070;-77
2020/12/06 08:57:53;;;;;;;68.40;35.22;;;2.90;99.90;;;;;;5042509;28;20049;-76
2020/12/06 09:00:19;;;;;;;77.80;35.95;;;2.90;99.90;;;;;;5025054;28;20061;-77
2020/12/06 09:02:45;;;;;;;71.43;35.28;;;3.00;99.90;;;;;;4992009;28;20050;-77
2020/12/06 09:05:12;;;;;;;70.30;36.13;;;3.10;99.90;;;;;;5024407;28;20524;-77
2020/12/06 09:07:42;;;;;;;72.70;34.15;;;3.10;99.90;;;;;;5040073;28;20057;-77
2020/12/06 09:10:10;;;;;;;70.43;34.35;;;3.10;99.90;;;;;;5027679;28;20041;-77
2020/12/06 09:12:37;;;;;;;75.20;36.60;;;3.20;99.90;;;;;;5044994;28;20053;-77
2020/12/06 09:15:05;;;;;;;73.40;36.13;;;3.20;99.90;;;;;;5027573;28;20083;-77
2020/12/06 09:17:33;;;;;;;77.60;39.78;;;3.30;99.90;;;;;;5026812;28;20045;-77
2020/12/06 09:20:00;;;;;;;71.38;37.35;;;3.30;99.90;;;;;;5043538;28;20037;-77
2020/12/06 09:22:26;;;;;;;72.55;34.42;;;3.30;99.90;;;;;;5043899;28;20144;-76
2020/12/06 09:24:52;;;;;;;69.25;35.38;;;3.00;99.90;;;;;;5044371;28;20060;-76
2020/12/06 09:27:19;;;;;;;69.28;33.55;;;2.90;99.90;;;;;;5026661;28;20044;-77
2020/12/06 09:29:45;;;;;;;65.97;34.30;;;2.90;99.90;;;;;;5043507;28;20055;-77
2020/12/06 09:32:13;;;;;;;74.28;36.17;;;3.00;99.90;;;;;;5037366;28;20058;-77
2020/12/06 09:34:39;;;;;;;71.72;35.13;;;3.10;99.90;;;;;;5040420;28;20045;-77
2020/12/06 09:37:05;;;;;;;71.05;33.90;;;3.10;99.90;;;;;;5042308;28;20059;-76
2020/12/06 09:39:32;;;;;;;72.97;36.20;;;3.10;99.90;;;;;;5026730;28;20087;-76
2020/12/06 09:41:58;;;;;;;77.47;37.13;;;3.10;99.90;;;;;;5043127;28;20053;-76
2020/12/06 09:44:25;;;;;;;67.97;34.70;;;3.10;99.90;;;;;;5026513;28;20059;-76
2020/12/06 09:46:51;;;;;;;69.55;35.88;;;3.10;99.90;;;;;;5042943;28;20217;-76
2020/12/06 09:49:17;;;;;;;71.60;35.42;;;3.10;99.90;;;;;;5044140;28;20068;-76
2020/12/06 09:51:43;;;;;;;74.03;34.28;;;3.00;99.90;;;;;;5026284;28;20079;-77
2020/12/06 09:54:10;;;;;;;69.93;32.92;;;3.00;99.90;;;;;;5043589;28;20056;-76
2020/12/06 09:56:36;;;;;;;75.03;36.95;;;3.00;99.90;;;;;;5043513;28;20485;-76
2020/12/06 09:59:02;;;;;;;65.72;31.95;;;3.10;99.90;;;;;;5022655;28;20076;-76
2020/12/06 10:01:28;;;;;;;70.30;34.15;;;3.10;99.90;;;;;;5026456;28;20141;-76
2020/12/06 10:03:55;;;;;;;77.80;37.15;;;3.10;99.90;;;;;;5027029;28;20047;-76
2020/12/06 10:06:23;;;;;;;83.03;37.00;;;3.10;99.90;;;;;;5026654;28;20049;-77
2020/12/06 10:08:50;;;;;;;72.60;35.33;;;3.10;99.90;;;;;;5038237;28;20059;-77
2020/12/06 10:11:16;;;;;;;77.63;37.78;;;3.10;99.90;;;;;;5025961;28;20049;-76
2020/12/06 10:13:45;;;;;;;77.57;35.47;;;3.00;99.90;;;;;;5041212;28;20060;-76
2020/12/06 10:16:14;;;;;;;74.75;36.45;;;3.00;99.90;;;;;;5046772;28;20057;-77
2020/12/06 10:18:40;;;;;;;73.95;35.60;;;3.00;99.90;;;;;;5046316;28;20647;-77
2020/12/06 10:21:07;;;;;;;67.28;34.92;;;3.10;99.90;;;;;;5046465;28;20068;-76
2020/12/06 10:23:33;;;;;;;72.90;35.47;;;3.10;99.90;;;;;;5046974;28;20049;-76
2020/12/06 10:26:01;;;;;;;74.95;34.75;;;3.10;99.90;;;;;;5013351;28;20584;-77
2020/12/06 10:28:27;;;;;;;68.80;34.60;;;3.10;99.90;;;;;;5009715;28;20049;-77
2020/12/06 10:30:53;;;;;;;77.55;37.35;;;3.20;99.90;;;;;;5024992;28;20501;-77
2020/12/06 10:33:20;;;;;;;77.72;35.85;;;3.30;99.90;;;;;;5046202;28;20052;-77
2020/12/06 10:35:47;;;;;;;74.43;39.83;;;3.30;99.90;;;;;;5046765;28;20049;-76
2020/12/06 10:38:13;;;;;;;69.22;34.80;;;3.20;99.90;;;;;;5043243;28;20127;-76
2020/12/06 10:40:39;;;;;;;72.60;34.63;;;3.20;99.90;;;;;;5041373;28;20132;-76
2020/12/06 10:43:06;;;;;;;78.95;37.20;;;3.30;99.90;;;;;;5041189;28;20494;-76
2020/12/06 10:45:34;;;;;;;68.13;34.95;;;3.30;99.90;;;;;;5031082;28;20147;-77
2020/12/06 10:48:03;;;;;;;75.82;35.67;;;3.30;99.90;;;;;;5055744;28;20077;-77
2020/12/06 10:50:29;;;;;;;71.55;34.55;;;3.30;99.90;;;;;;5047576;28;20041;-77
2020/12/06 10:52:56;;;;;;;79.18;38.15;;;3.30;99.90;;;;;;5049648;28;20064;-77
2020/12/06 10:55:26;;;;;;;72.32;34.25;;;3.30;99.90;;;;;;5065229;28;20048;-76
2020/12/06 10:57:53;;;;;;;79.65;37.42;;;3.10;99.90;;;;;;5049263;28;20110;-77
2020/12/06 11:00:20;;;;;;;76.20;36.65;;;3.00;99.90;;;;;;5064682;28;20068;-77
2020/12/06 11:02:46;;;;;;;74.40;36.45;;;3.20;99.90;;;;;;5061895;28;20053;-75
2020/12/06 11:05:13;;;;;;;74.82;35.40;;;3.20;99.90;;;;;;5046463;28;20563;-76
2020/12/06 11:07:39;;;;;;;75.45;37.30;;;3.10;99.90;;;;;;5046856;28;20056;-76
2020/12/06 11:10:05;;;;;;;73.40;35.45;;;3.10;99.90;;;;;;5055212;28;20082;-75
2020/12/06 11:12:32;;;;;;;80.43;36.65;;;3.20;99.90;;;;;;5066605;28;20071;-77
2020/12/06 11:14:58;;;;;;;79.65;36.42;;;3.20;99.90;;;;;;5049796;28;20044;-76
2020/12/06 11:17:29;;;;;;;86.57;38.45;;;3.20;99.90;;;;;;5047703;28;20076;-75
2020/12/06 11:19:57;;;;;;;72.88;37.20;;;3.20;99.90;;;;;;5060107;28;20671;-76
2020/12/06 11:22:24;;;;;;;74.88;36.38;;;3.20;99.90;;;;;;5065144;28;20293;-75
2020/12/06 11:24:51;;;;;;;73.10;37.17;;;3.20;99.90;;;;;;5066365;28;20094;-75
2020/12/06 11:27:18;;;;;;;67.47;35.35;;;3.30;99.90;;;;;;5048326;28;20047;-76
2020/12/06 11:29:45;;;;;;;73.78;36.30;;;3.30;99.90;;;;;;5047598;28;20153;-76
2020/12/06 11:32:11;;;;;;;79.65;40.08;;;3.30;99.90;;;;;;5057487;28;20045;-77
2020/12/06 11:34:38;;;;;;;71.10;35.95;;;3.30;99.90;;;;;;5048533;28;20045;-77
2020/12/06 11:37:04;;;;;;;74.40;33.90;;;3.30;99.90;;;;;;5064642;28;20036;-76
2020/12/06 11:39:31;;;;;;;71.30;36.78;;;3.30;99.90;;;;;;5049510;28;20051;-77
2020/12/06 11:41:57;;;;;;;70.97;37.55;;;3.20;99.90;;;;;;5066436;28;20056;-77
2020/12/06 11:44:24;;;;;;;69.55;34.13;;;3.20;99.90;;;;;;5048940;28;20049;-76
2020/12/06 11:46:50;;;;;;;76.70;37.75;;;3.30;99.90;;;;;;5064819;28;20848;-77
2020/12/06 11:49:17;;;;;;;75.35;36.83;;;3.40;99.90;;;;;;5066762;28;20098;-76
2020/12/06 11:51:43;;;;;;;79.85;38.38;;;3.30;99.90;;;;;;5032979;28;20169;-77
2020/12/06 11:54:09;;;;;;;76.50;38.20;;;3.30;99.90;;;;;;5066938;28;20048;-77
2020/12/06 11:56:36;;;;;;;80.43;40.58;;;3.40;99.90;;;;;;5066248;28;20040;-78
2020/12/06 11:59:02;;;;;;;90.53;41.53;;;3.40;99.90;;;;;;5065076;28;20131;-74
2020/12/06 12:01:28;;;;;;;82.32;39.03;;;3.50;99.90;;;;;;5027518;28;20106;-75
2020/12/06 12:03:55;;;;;;;82.03;40.55;;;3.50;99.90;;;;;;5043609;28;20045;-78
2020/12/06 12:06:22;;;;;;;76.47;38.70;;;3.60;99.90;;;;;;5028524;28;20053;-77
2020/12/06 12:08:51;;;;;;;76.80;40.70;;;3.60;99.90;;;;;;5028822;28;20059;-77
2020/12/06 12:11:18;;;;;;;82.72;40.42;;;3.50;99.90;;;;;;5062223;28;20056;-76
2020/12/06 12:13:45;;;;;;;92.55;42.28;;;3.50;99.90;;;;;;5048794;28;20497;-76
2020/12/06 12:16:11;;;;;;;80.22;39.75;;;3.50;99.90;;;;;;5047210;28;20049;-77
2020/12/06 12:18:37;;;;;;;85.40;41.95;;;3.70;99.90;;;;;;5048207;28;20048;-76
2020/12/06 12:21:04;;;;;;;81.32;40.85;;;3.60;99.90;;;;;;5048104;28;20097;-76
2020/12/06 12:23:30;;;;;;;94.13;47.92;;;3.60;99.90;;;;;;5066393;28;20067;-76
2020/12/06 12:25:56;;;;;;;101.72;49.53;;;3.50;99.90;;;;;;5045085;28;20055;-77
2020/12/06 12:28:23;;;;;;;108.30;52.45;;;3.50;99.90;;;;;;5065291;28;20056;-76
2020/12/06 12:30:50;;;;;;;100.68;49.75;;;3.50;99.90;;;;;;5066030;28;20626;-76
2020/12/06 12:33:16;;;;;;;93.97;46.67;;;3.60;99.90;;;;;;5047621;28;20044;-75
2020/12/06 12:35:42;;;;;;;87.00;45.20;;;3.70;99.90;;;;;;5064903;28;20044;-75
2020/12/06 12:38:10;;;;;;;88.05;42.20;;;3.70;99.90;;;;;;5047802;28;20636;-75
2020/12/06 12:40:36;;;;;;;89.25;43.85;;;3.80;99.90;;;;;;5063733;28;20066;-75
2020/12/06 12:43:02;;;;;;;85.18;40.13;;;3.90;99.90;;;;;;5054793;28;20044;-77